createdAt,value
2023-03-16T00:06:48.154Z,15.07
2023-03-16T00:14:06.367Z,14.18
2023-03-16T00:21:24.551Z,13.70
2023-03-16T00:28:44.441Z,14.90
2023-03-16T00:36:08.601Z,14.88
2023-03-16T00:43:28.326Z,18.02
2023-03-16T00:50:48.743Z,15.13
2023-03-16T00:58:06.956Z,13.77
2023-03-16T01:05:25.137Z,13.15
2023-03-16T01:12:46.199Z,12.20
2023-03-16T01:20:08.228Z,14.38
2023-03-16T01:27:26.397Z,13.65
2023-03-16T01:34:46.136Z,14.05
2023-03-16T01:42:05.346Z,12.10
2023-03-16T01:49:26.108Z,12.25
2023-03-16T01:56:52.394Z,13.43
2023-03-16T02:04:23.220Z,12.98
2023-03-16T02:11:44.071Z,11.93
2023-03-16T02:19:12.163Z,11.05
2023-03-16T02:26:36.243Z,10.30
2023-03-16T02:33:58.050Z,10.88
2023-03-16T02:41:18.713Z,10.52
2023-03-16T03:14:58.200Z,10.15
2023-03-16T03:50:56.643Z,9.38
2023-03-16T03:58:33.882Z,9.02
2023-03-16T04:05:57.704Z,8.82
2023-03-16T04:13:16.146Z,9.15
2023-03-16T04:20:34.580Z,7.43
2023-03-16T04:27:54.738Z,9.18
2023-03-16T04:35:17.879Z,8.30
2023-03-16T04:42:40.607Z,9.02
2023-03-16T04:50:04.756Z,8.77
2023-03-16T04:57:23.563Z,9.05
2023-03-16T05:04:44.666Z,8.27
2023-03-16T05:12:05.557Z,6.68
2023-03-16T05:19:24.370Z,7.47
2023-03-16T05:26:42.628Z,7.65
2023-03-16T05:34:05.550Z,7.10
2023-03-16T05:41:24.367Z,7.75
2023-03-16T05:48:57.864Z,7.55
2023-03-16T05:56:17.628Z,6.95
2023-03-16T06:03:38.591Z,4.87
2023-03-16T06:10:59.940Z,6.95
2023-03-16T06:18:19.661Z,7.07
2023-03-16T06:25:40.610Z,6.93
2023-03-16T06:33:00.448Z,7.90
2023-03-16T06:40:21.082Z,5.70
2023-03-16T06:47:39.428Z,6.35
2023-03-16T06:54:58.639Z,5.47
2023-03-16T07:02:20.357Z,5.70
2023-03-16T07:09:41.566Z,5.47
2023-03-16T07:17:00.493Z,4.38
2023-03-16T07:24:20.941Z,4.75
2023-03-16T07:31:39.413Z,4.55
2023-03-16T07:39:06.901Z,4.47
2023-03-16T07:46:27.942Z,4.00
2023-03-16T07:53:46.340Z,3.47
2023-03-16T08:01:11.008Z,3.95
2023-03-16T08:08:31.683Z,3.50
2023-03-16T08:15:55.987Z,4.43
2023-03-16T08:23:20.029Z,3.85
2023-03-16T08:30:45.958Z,3.78
2023-03-16T08:38:32.345Z,4.07
2023-03-16T08:45:56.047Z,2.75
2023-03-16T08:53:18.966Z,3.85
2023-03-16T09:00:37.653Z,3.05
2023-03-16T09:07:57.196Z,2.17
2023-03-16T09:15:15.506Z,2.67
2023-03-16T09:22:33.993Z,2.35
2023-03-16T09:29:58.876Z,2.15
2023-03-16T09:37:17.164Z,2.08
2023-03-16T09:44:41.103Z,2.47
2023-03-16T09:52:07.826Z,2.38
2023-03-16T09:59:30.007Z,2.13
2023-03-16T10:06:55.645Z,2.17
2023-03-16T10:14:20.261Z,2.15
2023-03-16T10:21:41.399Z,2.60
2023-03-16T10:29:01.720Z,2.38
2023-03-16T10:36:26.882Z,2.40
2023-03-16T10:43:45.168Z,2.60
2023-03-16T10:51:05.762Z,2.95
2023-03-16T10:58:27.254Z,1.90
2023-03-16T11:05:47.356Z,2.47
2023-03-16T11:13:12.705Z,2.15
2023-03-16T11:20:35.116Z,2.15
2023-03-16T11:27:56.735Z,2.40
2023-03-16T11:35:17.768Z,2.10
2023-03-16T11:42:40.196Z,2.33
2023-03-16T11:50:01.649Z,1.95
2023-03-16T11:57:32.846Z,2.42
2023-03-16T12:05:01.730Z,2.83
2023-03-16T12:12:30.812Z,2.20
2023-03-16T12:19:52.997Z,2.28
2023-03-16T12:27:17.783Z,2.60
2023-03-16T12:34:41.108Z,2.47
2023-03-16T12:42:08.513Z,2.05
2023-03-16T12:49:28.886Z,1.98
2023-03-16T12:56:48.209Z,2.10
2023-03-16T13:04:12.655Z,1.90
2023-03-16T13:11:45.816Z,1.63
2023-03-16T13:19:18.972Z,1.58
2023-03-16T13:26:42.156Z,15.05
2023-03-16T13:34:02.894Z,1.48
2023-03-16T13:41:21.235Z,1.92
2023-03-16T13:48:42.414Z,1.55
2023-03-16T13:56:02.276Z,1.48
2023-03-16T14:03:22.475Z,1.63
2023-03-16T14:10:43.784Z,1.90
2023-03-16T14:18:14.613Z,1.50
2023-03-16T14:25:34.648Z,1.60
2023-03-16T14:32:59.881Z,2.20
2023-03-16T14:40:27.343Z,1.77
2023-03-16T14:47:46.862Z,2.30
2023-03-16T14:55:19.397Z,2.00
2023-03-16T15:02:37.949Z,2.67
2023-03-16T15:09:58.404Z,2.03
2023-03-16T15:17:18.140Z,1.45
2023-03-16T15:24:36.574Z,2.40
2023-03-16T15:31:55.018Z,1.95
2023-03-16T15:39:21.664Z,2.15
2023-03-16T15:46:40.179Z,2.13
2023-03-16T15:54:00.623Z,1.70
2023-03-16T16:01:24.261Z,2.10
2023-03-16T16:08:42.556Z,1.95
2023-03-16T16:16:01.490Z,2.00
2023-03-16T16:23:21.217Z,2.58
2023-03-16T16:30:39.981Z,2.70
2023-03-16T16:37:58.297Z,4.70
2023-03-16T16:45:20.916Z,6.07
2023-03-16T16:52:39.029Z,6.30
2023-03-16T16:59:58.672Z,5.22
2023-03-16T17:07:18.439Z,8.55
2023-03-16T17:14:37.106Z,11.60
2023-03-16T17:21:57.411Z,9.80
2023-03-16T17:29:21.163Z,7.13
2023-03-16T17:43:59.246Z,4.97
2023-03-16T17:51:19.421Z,4.00
2023-03-16T17:58:38.330Z,8.70
2023-03-16T18:05:56.936Z,12.45
2023-03-16T18:13:20.907Z,12.82
2023-03-16T18:20:39.150Z,12.95
2023-03-16T18:27:58.141Z,12.02
2023-03-16T18:35:19.536Z,18.98
2023-03-16T18:42:38.438Z,18.08
2023-03-16T18:50:00.341Z,15.88
2023-03-16T18:57:22.484Z,14.70
2023-03-16T19:04:40.685Z,13.18
2023-03-16T19:12:00.293Z,13.93
2023-03-16T19:19:22.285Z,12.30
2023-03-16T19:26:40.936Z,11.82
2023-03-16T19:33:59.932Z,11.82
2023-03-16T19:41:27.186Z,11.90
2023-03-16T19:48:47.811Z,12.75
2023-03-16T19:56:07.365Z,12.40
2023-03-16T20:03:27.659Z,13.95
2023-03-16T20:10:47.347Z,14.43
2023-03-16T20:18:07.203Z,15.00
2023-03-16T20:25:32.376Z,15.13
2023-03-16T20:32:51.515Z,14.98
2023-03-16T20:40:10.517Z,15.93
2023-03-16T20:47:30.122Z,20.17
2023-03-16T20:54:48.529Z,19.30
2023-03-16T21:02:21.006Z,23.10
2023-03-16T21:09:42.122Z,25.52
2023-03-16T21:17:03.459Z,26.00
2023-03-16T21:24:22.025Z,26.45
2023-03-16T21:31:42.021Z,24.60
2023-03-16T21:39:00.343Z,26.52
2023-03-16T21:46:20.028Z,25.00
2023-03-16T21:53:40.522Z,24.75
2023-03-16T22:00:59.406Z,25.15
2023-03-16T22:08:19.855Z,24.83
2023-03-16T22:15:40.026Z,25.38
2023-03-16T22:22:58.368Z,24.17
2023-03-16T22:30:18.862Z,22.92
2023-03-16T22:37:38.372Z,24.33
2023-03-16T22:44:56.578Z,23.65
2023-03-16T22:52:15.098Z,22.05
2023-03-16T22:59:35.749Z,24.40
2023-03-16T23:06:54.866Z,21.20
2023-03-16T23:14:14.345Z,19.48
2023-03-16T23:21:34.134Z,20.67
2023-03-16T23:28:52.920Z,21.00
2023-03-16T23:36:15.529Z,21.40
2023-03-16T23:43:35.507Z,14.57
2023-03-16T23:50:55.536Z,19.23
2023-03-16T23:58:16.113Z,20.13
